createdAt,value
2023-04-06T00:00:34.419Z,-0.31
2023-04-06T00:03:01.345Z,-0.21
2023-04-06T00:05:29.023Z,-0.35
2023-04-06T00:07:56.939Z,-0.41
2023-04-06T00:10:23.852Z,-0.44
2023-04-06T00:12:50.439Z,-0.49
2023-04-06T00:15:17.054Z,-0.48
2023-04-06T00:17:43.991Z,-0.49
2023-04-06T00:20:11.159Z,-0.63
2023-04-06T00:22:37.849Z,-0.49
2023-04-06T00:25:04.701Z,-0.53
2023-04-06T00:27:31.377Z,-0.56
2023-04-06T00:29:57.913Z,-0.51
2023-04-06T00:32:24.796Z,-0.40
2023-04-06T00:34:52.649Z,-0.47
2023-04-06T00:37:20.136Z,-0.47
2023-04-06T00:39:46.707Z,-0.42
2023-04-06T00:42:14.739Z,-0.52
2023-04-06T00:44:44.715Z,-0.54
2023-04-06T00:47:11.291Z,-0.57
2023-04-06T00:49:37.830Z,-0.54
2023-04-06T00:52:04.561Z,-0.58
2023-04-06T00:54:31.766Z,-0.71
2023-04-06T00:56:59.441Z,-0.79
2023-04-06T00:59:29.606Z,-1.14
2023-04-06T01:01:57.315Z,-0.73
2023-04-06T01:04:34.218Z,-0.71
2023-04-06T01:07:02.214Z,-0.76
2023-04-06T01:09:36.657Z,-1.18
2023-04-06T01:12:09.052Z,-1.12
2023-04-06T01:14:36.089Z,-0.98
2023-04-06T01:17:02.799Z,-1.02
2023-04-06T01:19:32.049Z,-0.96
2023-04-06T01:21:59.022Z,-0.98
2023-04-06T01:24:31.873Z,-0.87
2023-04-06T01:27:18.675Z,-0.87
2023-04-06T01:30:18.403Z,-0.86
2023-04-06T01:32:58.513Z,-0.89
2023-04-06T01:35:37.614Z,-0.96
2023-04-06T01:38:17.309Z,-0.97
2023-04-06T01:40:44.973Z,-0.98
2023-04-06T01:43:13.245Z,-0.94
2023-04-06T01:45:55.355Z,-1.00
2023-04-06T01:48:23.586Z,-0.96
2023-04-06T01:50:50.268Z,-0.94
2023-04-06T01:53:22.730Z,-0.94
2023-04-06T01:55:50.444Z,-0.92
2023-04-06T01:58:33.554Z,-0.95
2023-04-06T02:01:01.311Z,-1.14
2023-04-06T02:03:34.537Z,-0.92
2023-04-06T02:06:07.142Z,-0.96
2023-04-06T02:08:38.488Z,-1.03
2023-04-06T02:11:05.007Z,-1.02
2023-04-06T02:13:38.623Z,-1.02
2023-04-06T02:16:05.750Z,-1.09
2023-04-06T02:18:34.872Z,-1.01
2023-04-06T02:21:01.676Z,-1.01
2023-04-06T02:23:28.596Z,-1.17
2023-04-06T02:25:57.222Z,-1.06
2023-04-06T02:28:24.903Z,-1.03
2023-04-06T02:30:51.680Z,-1.02
2023-04-06T02:33:19.163Z,-1.18
2023-04-06T02:35:48.078Z,-1.06
2023-04-06T02:38:14.923Z,-1.08
2023-04-06T02:40:41.637Z,-1.15
2023-04-06T02:43:21.782Z,-1.16
2023-04-06T02:45:51.983Z,-1.17
2023-04-06T02:48:21.230Z,-1.26
2023-04-06T02:50:47.896Z,-1.31
2023-04-06T02:53:14.445Z,-1.32
2023-04-06T02:55:41.473Z,-1.35
2023-04-06T02:58:08.128Z,-1.30
2023-04-06T03:00:56.704Z,-1.31
2023-04-06T03:03:23.611Z,-1.37
2023-04-06T03:05:50.651Z,-1.52
2023-04-06T03:08:24.254Z,-1.42
2023-04-06T03:10:51.131Z,-1.47
2023-04-06T03:13:19.181Z,-1.49
2023-04-06T03:15:49.193Z,-1.45
2023-04-06T03:18:23.560Z,-1.40
2023-04-06T03:20:52.540Z,-1.39
2023-04-06T03:23:22.056Z,-1.42
2023-04-06T03:25:53.228Z,-1.44
2023-04-06T03:28:21.644Z,-1.47
2023-04-06T03:30:55.248Z,-1.59
2023-04-06T03:33:57.271Z,-1.48
2023-04-06T03:36:28.443Z,-1.52
2023-04-06T03:38:57.250Z,-1.60
2023-04-06T03:41:23.909Z,-1.57
2023-04-06T03:44:16.426Z,-1.67
2023-04-06T03:46:44.714Z,-1.70
2023-04-06T03:49:11.734Z,-1.68
2023-04-06T03:51:39.922Z,-1.69
2023-04-06T03:54:07.403Z,-2.14
2023-04-06T03:56:33.843Z,-1.62
2023-04-06T03:59:00.430Z,-1.82
2023-04-06T04:01:28.413Z,-1.80
2023-04-06T04:03:55.774Z,-1.83
2023-04-06T04:06:22.342Z,-1.90
2023-04-06T04:08:49.006Z,-2.24
2023-04-06T04:11:17.129Z,-1.91
2023-04-06T04:13:51.526Z,-1.95
2023-04-06T04:16:18.409Z,-1.88
2023-04-06T04:18:46.429Z,-1.87
2023-04-06T04:21:13.030Z,-1.85
2023-04-06T04:23:39.876Z,-1.84
2023-04-06T04:26:06.993Z,-1.90
2023-04-06T04:28:35.112Z,-1.94
2023-04-06T04:31:01.772Z,-1.91
2023-04-06T04:33:31.998Z,-2.01
2023-04-06T04:36:01.954Z,-1.95
2023-04-06T04:38:35.431Z,-2.01
2023-04-06T04:41:02.510Z,-2.12
2023-04-06T04:43:32.806Z,-2.09
2023-04-06T04:46:02.662Z,-2.13
2023-04-06T04:48:40.573Z,-2.00
2023-04-06T04:51:07.788Z,-1.98
2023-04-06T04:53:47.353Z,-2.07
2023-04-06T04:56:22.364Z,-2.06
2023-04-06T04:58:53.401Z,-2.02
2023-04-06T05:01:19.967Z,-2.00
2023-04-06T05:03:47.627Z,-2.01
2023-04-06T05:06:16.439Z,-2.06
2023-04-06T05:08:43.833Z,-2.09
2023-04-06T05:11:11.260Z,-1.99
2023-04-06T05:13:43.299Z,-2.02
2023-04-06T05:16:16.082Z,-1.97
2023-04-06T05:18:42.665Z,-1.94
2023-04-06T05:21:10.438Z,-1.90
2023-04-06T05:23:49.167Z,-1.75
2023-04-06T05:26:15.903Z,-1.76
2023-04-06T05:28:45.325Z,-1.63
2023-04-06T05:31:12.522Z,-1.48
2023-04-06T05:33:46.450Z,-1.21
2023-04-06T05:36:16.458Z,-0.96
2023-04-06T05:38:46.069Z,-0.72
2023-04-06T05:41:22.009Z,-0.46
2023-04-06T05:43:49.179Z,-0.07
2023-04-06T05:46:16.681Z,0.30
2023-04-06T05:48:44.728Z,0.59
2023-04-06T05:51:13.269Z,0.94
2023-04-06T05:53:46.083Z,1.18
2023-04-06T05:56:12.888Z,1.42
2023-04-06T05:58:40.884Z,1.80
2023-04-06T06:01:11.058Z,2.08
2023-04-06T06:03:42.242Z,2.42
2023-04-06T06:06:08.738Z,2.75
2023-04-06T06:09:07.393Z,3.05
2023-04-06T06:11:40.151Z,3.25
2023-04-06T06:14:06.733Z,3.48
2023-04-06T06:16:36.915Z,3.65
2023-04-06T06:19:04.070Z,3.75
2023-04-06T06:21:32.425Z,4.04
2023-04-06T06:23:59.579Z,4.28
2023-04-06T06:26:26.282Z,4.50
2023-04-06T06:28:52.818Z,4.66
2023-04-06T06:31:23.915Z,4.79
2023-04-06T06:33:53.865Z,4.95
2023-04-06T06:36:23.791Z,5.18
2023-04-06T06:38:50.942Z,5.26
2023-04-06T06:41:19.616Z,5.44
2023-04-06T06:43:46.401Z,5.61
2023-04-06T06:46:13.036Z,5.83
2023-04-06T06:48:40.982Z,5.55
2023-04-06T06:51:07.750Z,6.20
2023-04-06T06:53:34.260Z,6.89
2023-04-06T06:56:01.215Z,7.49
2023-04-06T06:58:28.846Z,7.88
2023-04-06T07:00:59.821Z,8.18
2023-04-06T07:03:28.350Z,8.48
2023-04-06T07:05:55.581Z,8.64
2023-04-06T07:08:25.138Z,8.87
2023-04-06T07:10:57.272Z,9.17
2023-04-06T07:13:24.638Z,9.06
2023-04-06T07:15:54.232Z,8.84
2023-04-06T07:18:22.073Z,8.54
2023-04-06T07:20:48.906Z,8.49
2023-04-06T07:23:16.425Z,8.66
2023-04-06T07:25:44.741Z,8.78
2023-04-06T07:28:11.290Z,8.97
2023-04-06T07:30:38.692Z,9.16
2023-04-06T07:33:06.697Z,9.38
2023-04-06T07:35:37.599Z,9.56
2023-04-06T07:38:05.241Z,9.98
2023-04-06T07:40:34.007Z,9.99
2023-04-06T07:43:00.788Z,9.96
2023-04-06T07:45:27.387Z,10.30
2023-04-06T07:47:54.600Z,10.41
2023-04-06T07:50:22.035Z,10.87
2023-04-06T07:52:48.622Z,10.90
2023-04-06T07:55:15.700Z,10.94
2023-04-06T07:57:42.211Z,10.31
2023-04-06T08:00:10.698Z,10.46
2023-04-06T08:02:39.811Z,10.65
2023-04-06T08:05:07.189Z,10.67
2023-04-06T08:07:33.781Z,10.68
2023-04-06T08:10:00.753Z,11.34
2023-04-06T08:12:27.343Z,11.93
2023-04-06T08:14:53.886Z,12.46
2023-04-06T08:17:20.768Z,12.66
2023-04-06T08:19:47.333Z,12.88
2023-04-06T08:22:14.134Z,13.18
2023-04-06T08:24:40.998Z,13.38
2023-04-06T08:27:07.592Z,13.68
2023-04-06T08:29:34.216Z,13.89
2023-04-06T08:32:05.900Z,14.12
2023-04-06T08:34:34.300Z,14.19
2023-04-06T08:37:01.394Z,14.29
2023-04-06T08:39:29.170Z,14.45
2023-04-06T08:42:00.713Z,14.52
2023-04-06T08:44:28.456Z,14.61
2023-04-06T08:46:55.771Z,14.82
2023-04-06T08:49:23.152Z,14.85
2023-04-06T08:51:52.896Z,14.87
2023-04-06T08:54:19.404Z,14.99
2023-04-06T08:56:46.366Z,14.98
2023-04-06T08:59:13.329Z,15.12
2023-04-06T09:01:42.434Z,15.15
2023-04-06T09:04:12.625Z,15.13
2023-04-06T09:06:41.294Z,15.33
2023-04-06T09:09:07.963Z,15.19
2023-04-06T09:11:51.460Z,15.23
2023-04-06T09:14:18.630Z,15.14
2023-04-06T09:16:46.666Z,15.02
2023-04-06T09:19:13.331Z,14.93
2023-04-06T09:21:41.154Z,14.80
2023-04-06T09:24:10.296Z,14.77
2023-04-06T09:26:48.044Z,14.77
2023-04-06T09:29:25.653Z,14.63
2023-04-06T09:31:52.337Z,14.45
2023-04-06T09:34:23.865Z,14.57
2023-04-06T09:36:50.788Z,14.48
2023-04-06T09:39:22.224Z,14.83
2023-04-06T09:41:51.814Z,14.79
2023-04-06T09:44:18.618Z,14.47
2023-04-06T09:46:59.548Z,14.22
2023-04-06T09:49:32.224Z,14.04
2023-04-06T09:52:04.377Z,14.22
2023-04-06T09:54:32.467Z,14.35
2023-04-06T09:57:14.639Z,14.44
2023-04-06T10:00:12.370Z,14.77
2023-04-06T10:03:09.832Z,15.07
2023-04-06T10:05:45.034Z,14.79
2023-04-06T10:08:12.476Z,14.85
2023-04-06T10:10:39.078Z,14.68
2023-04-06T10:13:06.767Z,14.66
2023-04-06T10:15:34.729Z,14.81
2023-04-06T10:18:03.195Z,14.79
2023-04-06T10:20:44.867Z,14.81
2023-04-06T10:23:36.308Z,14.56
2023-04-06T10:26:03.397Z,14.77
2023-04-06T10:28:35.561Z,14.91
2023-04-06T10:31:05.662Z,14.90
2023-04-06T10:33:32.421Z,14.87
2023-04-06T10:36:20.940Z,15.00
2023-04-06T10:38:47.428Z,14.42
2023-04-06T10:41:14.818Z,14.41
2023-04-06T10:43:43.243Z,14.55
2023-04-06T10:46:11.722Z,14.53
2023-04-06T10:48:40.682Z,14.57
2023-04-06T10:51:14.559Z,14.55
2023-04-06T10:53:46.334Z,14.40
2023-04-06T10:56:14.948Z,14.73
2023-04-06T10:58:48.724Z,14.80
2023-04-06T11:01:20.369Z,14.71
2023-04-06T11:03:49.045Z,14.76
2023-04-06T11:06:25.930Z,14.96
2023-04-06T11:08:53.164Z,15.11
2023-04-06T11:11:22.498Z,15.11
2023-04-06T11:13:55.245Z,14.96
2023-04-06T11:16:27.122Z,14.85
2023-04-06T11:18:58.850Z,14.68
2023-04-06T11:21:44.725Z,14.28
2023-04-06T11:24:16.490Z,14.42
2023-04-06T11:26:49.334Z,14.31
2023-04-06T11:29:20.694Z,14.21
2023-04-06T11:31:49.033Z,14.58
2023-04-06T11:34:26.292Z,14.55
2023-04-06T11:37:00.453Z,14.44
2023-04-06T11:39:28.994Z,14.54
2023-04-06T11:41:59.098Z,14.37
2023-04-06T11:44:49.841Z,14.45
2023-04-06T11:47:17.426Z,14.45
2023-04-06T11:49:46.298Z,14.32
2023-04-06T11:52:16.924Z,14.40
2023-04-06T11:54:43.758Z,14.43
2023-04-06T11:57:10.281Z,14.33
2023-04-06T11:59:37.180Z,14.21
2023-04-06T12:02:04.383Z,14.14
2023-04-06T12:04:31.649Z,13.92
2023-04-06T12:06:58.676Z,14.02
2023-04-06T12:09:25.521Z,14.14
2023-04-06T12:11:52.766Z,14.12
2023-04-06T12:14:20.115Z,14.12
2023-04-06T12:16:47.165Z,14.19
2023-04-06T12:19:13.673Z,14.21
2023-04-06T12:21:41.789Z,14.20
2023-04-06T12:24:09.224Z,14.11
2023-04-06T12:26:36.784Z,14.17
2023-04-06T12:29:08.203Z,14.00
2023-04-06T12:31:39.917Z,14.04
2023-04-06T12:34:07.868Z,14.07
2023-04-06T12:36:34.653Z,14.02
2023-04-06T12:39:01.897Z,13.92
2023-04-06T12:41:31.830Z,13.89
2023-04-06T12:44:00.676Z,13.92
2023-04-06T12:46:27.505Z,13.88
2023-04-06T12:48:57.642Z,13.93
2023-04-06T12:51:24.429Z,13.87
2023-04-06T12:53:51.391Z,13.71
2023-04-06T12:56:19.492Z,13.71
2023-04-06T12:58:46.797Z,13.72
2023-04-06T13:01:14.313Z,13.77
2023-04-06T13:03:42.059Z,13.77
2023-04-06T13:06:09.509Z,13.75
2023-04-06T13:08:38.407Z,13.65
2023-04-06T13:11:06.178Z,13.28
2023-04-06T13:13:32.886Z,13.22
2023-04-06T13:16:03.220Z,13.07
2023-04-06T13:18:32.411Z,13.18
2023-04-06T13:21:00.566Z,13.23
2023-04-06T13:23:27.848Z,13.23
2023-04-06T13:26:02.752Z,13.00
2023-04-06T13:28:29.640Z,12.99
2023-04-06T13:30:56.936Z,12.88
2023-04-06T13:33:25.062Z,12.85
2023-04-06T13:35:52.024Z,12.78
2023-04-06T13:38:18.677Z,12.28
2023-04-06T13:40:45.364Z,12.44
2023-04-06T13:43:11.833Z,12.35
2023-04-06T13:45:39.452Z,12.32
2023-04-06T13:48:06.535Z,12.20
2023-04-06T13:50:33.937Z,12.25
2023-04-06T13:53:01.234Z,12.12
2023-04-06T13:55:27.741Z,12.10
2023-04-06T13:57:54.249Z,12.19
2023-04-06T14:00:21.260Z,12.25
2023-04-06T14:02:47.961Z,12.30
2023-04-06T14:05:14.937Z,12.32
2023-04-06T14:07:41.720Z,12.21
2023-04-06T14:13:05.896Z,12.21
2023-04-06T14:15:33.228Z,12.09
2023-04-06T14:17:59.759Z,11.99
2023-04-06T14:20:26.490Z,12.02
2023-04-06T14:22:56.741Z,12.01
2023-04-06T14:25:23.357Z,11.94
2023-04-06T14:27:50.021Z,11.77
2023-04-06T14:30:16.645Z,11.65
2023-04-06T14:32:43.248Z,11.59
2023-04-06T14:35:10.798Z,11.47
2023-04-06T14:37:37.678Z,11.51
2023-04-06T14:40:05.040Z,11.24
2023-04-06T14:42:31.575Z,10.83
2023-04-06T14:44:58.713Z,11.20
2023-04-06T14:47:25.685Z,11.25
2023-04-06T14:49:53.463Z,11.15
2023-04-06T14:52:20.110Z,11.05
2023-04-06T14:54:46.651Z,11.19
2023-04-06T14:57:13.211Z,11.32
2023-04-06T14:59:40.345Z,11.34
2023-04-06T15:02:07.490Z,11.23
2023-04-06T15:04:40.105Z,11.13
2023-04-06T15:07:06.716Z,10.89
2023-04-06T15:09:33.208Z,11.15
2023-04-06T15:11:59.933Z,11.22
2023-04-06T15:14:26.555Z,11.15
2023-04-06T15:16:54.133Z,11.26
2023-04-06T15:19:22.149Z,11.25
2023-04-06T15:21:51.222Z,11.22
2023-04-06T15:24:17.664Z,11.15
2023-04-06T15:26:46.456Z,11.07
2023-04-06T15:29:12.984Z,11.03
2023-04-06T15:31:39.849Z,10.98
2023-04-06T15:34:09.168Z,11.01
2023-04-06T15:36:36.763Z,10.93
2023-04-06T15:39:07.160Z,10.77
2023-04-06T15:41:33.929Z,10.77
2023-04-06T15:44:00.584Z,10.78
2023-04-06T15:46:28.690Z,10.69
2023-04-06T15:48:56.440Z,10.62
2023-04-06T15:51:24.093Z,10.55
2023-04-06T15:53:50.747Z,10.59
2023-04-06T15:56:17.254Z,10.16
2023-04-06T15:58:45.916Z,10.43
2023-04-06T16:01:15.678Z,10.46
2023-04-06T16:03:43.681Z,10.43
2023-04-06T16:06:10.952Z,10.11
2023-04-06T16:08:39.225Z,10.18
2023-04-06T16:11:05.842Z,10.17
2023-04-06T16:13:33.115Z,9.94
2023-04-06T16:15:59.831Z,9.92
2023-04-06T16:18:26.315Z,9.84
2023-04-06T16:20:54.606Z,9.74
2023-04-06T16:23:21.301Z,9.44
2023-04-06T16:25:47.783Z,9.73
2023-04-06T16:28:14.667Z,9.71
2023-04-06T16:30:43.541Z,9.74
2023-04-06T16:33:12.581Z,9.71
2023-04-06T16:35:46.536Z,9.66
2023-04-06T16:38:14.141Z,9.54
2023-04-06T16:40:41.039Z,9.23
2023-04-06T16:43:07.889Z,9.18
2023-04-06T16:45:34.645Z,9.16
2023-04-06T16:48:01.640Z,9.05
2023-04-06T16:50:28.235Z,9.12
2023-04-06T16:52:54.823Z,8.91
2023-04-06T16:55:21.431Z,8.87
2023-04-06T16:57:49.206Z,8.66
2023-04-06T17:00:16.840Z,8.59
2023-04-06T17:02:47.865Z,8.57
2023-04-06T17:05:14.603Z,8.59
2023-04-06T17:07:41.477Z,8.51
2023-04-06T17:10:08.409Z,8.62
2023-04-06T17:12:34.947Z,8.53
2023-04-06T17:15:01.636Z,8.54
2023-04-06T17:17:28.078Z,8.36
2023-04-06T17:19:54.616Z,8.42
2023-04-06T17:22:21.424Z,8.38
2023-04-06T17:24:48.913Z,8.08
2023-04-06T17:27:15.985Z,8.23
2023-04-06T17:29:43.049Z,8.17
2023-04-06T17:32:11.786Z,8.21
2023-04-06T17:34:38.535Z,8.11
2023-04-06T17:37:05.840Z,7.78
2023-04-06T17:39:32.567Z,7.92
2023-04-06T17:41:59.898Z,7.77
2023-04-06T17:44:26.559Z,7.71
2023-04-06T17:46:53.086Z,7.71
2023-04-06T17:49:19.621Z,7.56
2023-04-06T17:51:46.515Z,7.57
2023-04-06T17:54:13.043Z,7.58
2023-04-06T17:56:39.802Z,7.44
2023-04-06T17:59:09.240Z,7.47
2023-04-06T18:01:36.845Z,7.46
2023-04-06T18:04:03.469Z,7.45
2023-04-06T18:06:30.150Z,7.40
2023-04-06T18:08:56.818Z,7.39
2023-04-06T18:11:26.146Z,7.38
2023-04-06T18:13:53.044Z,7.32
2023-04-06T18:16:23.535Z,7.29
2023-04-06T18:18:50.273Z,7.33
2023-04-06T18:21:17.034Z,7.30
2023-04-06T18:23:43.514Z,7.30
2023-04-06T18:26:18.594Z,7.32
2023-04-06T18:28:46.075Z,7.14
2023-04-06T18:31:13.014Z,7.13
2023-04-06T18:33:39.543Z,7.05
2023-04-06T18:36:06.505Z,7.05
2023-04-06T18:38:33.039Z,7.09
2023-04-06T18:40:59.597Z,7.01
2023-04-06T18:43:26.448Z,6.92
2023-04-06T18:45:52.939Z,6.91
2023-04-06T18:48:19.824Z,6.92
2023-04-06T18:50:55.649Z,6.46
2023-04-06T18:53:22.730Z,6.89
2023-04-06T18:55:50.339Z,6.80
2023-04-06T18:58:17.004Z,6.68
2023-04-06T19:00:43.799Z,6.63
2023-04-06T19:03:10.684Z,6.64
2023-04-06T19:05:37.292Z,6.58
2023-04-06T19:08:03.847Z,6.64
2023-04-06T19:10:30.414Z,6.58
2023-04-06T19:12:58.106Z,6.53
2023-04-06T19:15:24.726Z,6.57
2023-04-06T19:17:51.475Z,6.53
2023-04-06T19:20:18.134Z,6.49
2023-04-06T19:22:46.413Z,6.46
2023-04-06T19:25:12.994Z,6.43
2023-04-06T19:27:39.683Z,6.49
2023-04-06T19:30:07.006Z,6.56
2023-04-06T19:32:34.673Z,6.57
2023-04-06T19:35:02.694Z,6.50
2023-04-06T19:37:29.189Z,6.45
2023-04-06T19:39:56.065Z,6.37
2023-04-06T19:42:25.282Z,6.38
2023-04-06T19:44:52.281Z,6.25
2023-04-06T19:47:19.318Z,6.36
2023-04-06T19:49:46.141Z,6.29
2023-04-06T19:52:13.248Z,6.36
2023-04-06T19:54:40.324Z,6.47
2023-04-06T19:57:08.271Z,6.48
2023-04-06T19:59:35.090Z,6.49
2023-04-06T20:02:02.551Z,6.54
2023-04-06T20:04:29.295Z,6.49
2023-04-06T20:06:55.964Z,6.27
2023-04-06T20:09:22.787Z,6.30
2023-04-06T20:11:49.342Z,6.31
2023-04-06T20:14:17.786Z,6.29
2023-04-06T20:16:44.862Z,6.29
2023-04-06T20:19:11.506Z,6.46
2023-04-06T20:21:39.641Z,6.41
2023-04-06T20:24:06.411Z,6.33
2023-04-06T20:26:33.460Z,6.28
2023-04-06T20:29:00.405Z,6.32
2023-04-06T20:31:27.793Z,6.26
2023-04-06T20:33:54.992Z,6.25
2023-04-06T20:36:22.398Z,6.29
2023-04-06T20:38:49.245Z,6.23
2023-04-06T20:41:16.394Z,6.27
2023-04-06T20:43:45.155Z,6.22
2023-04-06T20:46:18.352Z,6.24
2023-04-06T20:48:47.130Z,6.16
2023-04-06T20:51:23.255Z,6.17
2023-04-06T20:53:49.890Z,6.23
2023-04-06T20:56:17.886Z,6.16
2023-04-06T20:58:44.475Z,6.16
2023-04-06T21:01:20.733Z,6.11
2023-04-06T21:03:47.338Z,5.95
2023-04-06T21:06:13.852Z,5.96
2023-04-06T21:08:40.668Z,6.06
2023-04-06T21:11:07.858Z,6.12
2023-04-06T21:13:35.948Z,6.11
2023-04-06T21:16:03.459Z,6.13
2023-04-06T21:18:31.656Z,6.18
2023-04-06T21:20:58.574Z,6.12
2023-04-06T21:23:25.446Z,6.27
2023-04-06T21:25:53.288Z,6.22
2023-04-06T21:28:20.317Z,6.19
2023-04-06T21:30:46.901Z,6.14
2023-04-06T21:33:13.454Z,6.09
2023-04-06T21:35:41.366Z,6.11
2023-04-06T21:38:08.615Z,5.88
2023-04-06T21:40:35.511Z,6.01
2023-04-06T21:43:02.708Z,5.98
2023-04-06T21:45:32.539Z,6.09
2023-04-06T21:47:59.948Z,6.00
2023-04-06T21:50:26.607Z,6.00
2023-04-06T21:52:53.156Z,6.05
2023-04-06T21:55:21.178Z,6.08
2023-04-06T21:57:47.668Z,6.13
2023-04-06T22:00:15.132Z,5.94
2023-04-06T22:02:42.164Z,6.09
2023-04-06T22:05:09.767Z,6.14
2023-04-06T22:07:36.896Z,6.16
2023-04-06T22:10:05.220Z,6.15
2023-04-06T22:12:31.907Z,6.18
2023-04-06T22:14:58.431Z,6.21
2023-04-06T22:17:25.859Z,6.27
2023-04-06T22:19:52.759Z,6.31
2023-04-06T22:22:19.482Z,5.98
2023-04-06T22:24:46.180Z,6.20
2023-04-06T22:27:12.744Z,6.25
2023-04-06T22:29:40.390Z,6.23
2023-04-06T22:32:06.924Z,6.20
2023-04-06T22:34:33.679Z,6.17
2023-04-06T22:37:00.280Z,5.96
2023-04-06T22:39:26.818Z,6.22
2023-04-06T22:41:54.399Z,6.16
2023-04-06T22:44:21.677Z,6.12
2023-04-06T22:46:48.384Z,6.07
2023-04-06T22:49:14.869Z,6.04
2023-04-06T22:51:42.718Z,5.94
2023-04-06T22:54:10.558Z,5.96
2023-04-06T22:56:37.148Z,5.98
2023-04-06T22:59:03.873Z,5.99
2023-04-06T23:01:33.167Z,5.98
2023-04-06T23:03:59.917Z,5.99
2023-04-06T23:06:27.297Z,5.96
2023-04-06T23:08:54.291Z,5.92
2023-04-06T23:11:22.576Z,5.93
2023-04-06T23:13:49.954Z,5.64
2023-04-06T23:16:16.504Z,5.94
2023-04-06T23:18:43.135Z,5.89
2023-04-06T23:21:09.709Z,6.00
2023-04-06T23:23:36.853Z,6.02
2023-04-06T23:26:03.632Z,5.90
2023-04-06T23:28:30.882Z,5.82
2023-04-06T23:30:57.695Z,5.85
2023-04-06T23:33:24.474Z,5.95
2023-04-06T23:35:52.319Z,5.93
2023-04-06T23:38:19.008Z,5.97
2023-04-06T23:40:45.922Z,5.60
2023-04-06T23:43:12.697Z,5.96
2023-04-06T23:45:41.790Z,5.93
2023-04-06T23:48:10.118Z,5.95
2023-04-06T23:50:36.792Z,5.66
2023-04-06T23:53:04.317Z,5.84
2023-04-06T23:55:31.235Z,5.77
2023-04-06T23:57:57.908Z,5.59
